Time;durP1;ratioP1;P1;durP2;ratioP2;P2;SDS_P1;SDS_P2;PMS_P1;PMS_P2;Temp;Humidity;BMP_temperature;BMP_pressure;BME280_temperature;BME280_humidity;BME280_pressure;Samples;Min_cycle;Max_cycle;Signal;HPM_P1;HPM_P2
2021/11/14 00:01:42;;;;;;;;;2.00;2.00;;;;;;;;4961651;28;112847;-73
2021/11/14 00:04:08;;;;;;;;;4.00;2.00;;;;;;;;4961595;28;112397;-74
2021/11/14 00:06:33;;;;;;;;;1.75;1.00;;;;;;;;4962309;28;113361;-74
2021/11/14 00:08:59;;;;;;;;;1.00;1.00;;;;;;;;4961164;28;112442;-73
2021/11/14 00:11:24;;;;;;;;;2.75;1.00;;;;;;;;4962565;28;112019;-75
2021/11/14 00:13:51;;;;;;;;;1.00;1.00;;;;;;;;4962639;28;111938;-73
2021/11/14 00:16:17;;;;;;;;;0.50;0.50;;;;;;;;4959721;28;115464;-74
2021/11/14 00:18:43;;;;;;;;;1.00;1.00;;;;;;;;4966421;28;112224;-73
2021/11/14 00:21:10;;;;;;;;;1.00;1.00;;;;;;;;4961308;28;112646;-72
2021/11/14 00:23:35;;;;;;;;;0.50;0.00;;;;;;;;4962175;28;112249;-73
2021/11/14 00:26:01;;;;;;;;;0.25;0.25;;;;;;;;4962421;28;113176;-73
2021/11/14 00:28:26;;;;;;;;;2.00;0.50;;;;;;;;4961590;28;114306;-73
2021/11/14 00:30:52;;;;;;;;;0.00;0.00;;;;;;;;4963215;28;111848;-73
2021/11/14 00:33:18;;;;;;;;;1.00;0.00;;;;;;;;4963031;28;112029;-73
2021/11/14 00:35:43;;;;;;;;;0.00;0.00;;;;;;;;4961156;28;112449;-72
2021/11/14 00:38:09;;;;;;;;;0.00;0.00;;;;;;;;4966281;28;112209;-73
2021/11/14 00:40:36;;;;;;;;;0.00;0.00;;;;;;;;4960733;28;112489;-73
2021/11/14 00:43:01;;;;;;;;;1.50;0.00;;;;;;;;4962448;28;111957;-73
2021/11/14 00:45:27;;;;;;;;;1.00;0.00;;;;;;;;4962433;28;111873;-72
2021/11/14 00:47:52;;;;;;;;;0.00;0.00;;;;;;;;4961154;28;112425;-72
2021/11/14 00:50:18;;;;;;;;;0.00;0.00;;;;;;;;4961993;28;112331;-72
2021/11/14 00:52:45;;;;;;;;;0.00;0.00;;;;;;;;4962333;28;112041;-74
2021/11/14 00:55:12;;;;;;;;;0.00;0.00;;;;;;;;4960577;28;112392;-74
2021/11/14 00:57:37;;;;;;;;;0.00;0.00;;;;;;;;4961817;28;111948;-73
2021/11/14 01:00:06;;;;;;;;;0.00;0.00;;;;;;;;4964876;28;111838;-73
2021/11/14 01:02:31;;;;;;;;;0.00;0.00;;;;;;;;4961962;28;112011;-74
2021/11/14 01:04:57;;;;;;;;;0.00;0.00;;;;;;;;4962579;28;112413;-73
2021/11/14 01:07:22;;;;;;;;;0.25;0.00;;;;;;;;4961043;28;112812;-74
2021/11/14 01:09:47;;;;;;;;;0.00;0.00;;;;;;;;4961377;28;111856;-73
2021/11/14 01:12:13;;;;;;;;;1.75;0.00;;;;;;;;4962019;28;111974;-72
2021/11/14 01:14:38;;;;;;;;;2.75;0.00;;;;;;;;4960834;28;112375;-73
2021/11/14 01:17:04;;;;;;;;;1.00;1.00;;;;;;;;4961624;28;111959;-73
2021/11/14 01:19:29;;;;;;;;;1.75;0.50;;;;;;;;4961749;28;111867;-73
2021/11/14 01:21:54;;;;;;;;;0.00;0.00;;;;;;;;4963493;28;112298;-74
2021/11/14 01:24:19;;;;;;;;;0.00;0.00;;;;;;;;4960157;28;113961;-74
2021/11/14 01:26:45;;;;;;;;;2.00;0.00;;;;;;;;4961228;28;112340;-74
2021/11/14 01:29:10;;;;;;;;;0.25;0.00;;;;;;;;4962385;28;111751;-74
2021/11/14 01:31:36;;;;;;;;;0.75;0.00;;;;;;;;4962370;28;111939;-73
2021/11/14 01:34:02;;;;;;;;;0.00;0.00;;;;;;;;4959624;28;113787;-73
2021/11/14 01:36:32;;;;;;;;;0.00;0.00;;;;;;;;4961948;28;111943;-73
2021/11/14 01:38:57;;;;;;;;;1.00;0.00;;;;;;;;4961889;28;112327;-74
2021/11/14 01:41:22;;;;;;;;;1.00;0.00;;;;;;;;4959360;28;115911;-74
2021/11/14 01:43:50;;;;;;;;;0.00;0.00;;;;;;;;4965048;28;111922;-74
2021/11/14 01:46:16;;;;;;;;;1.00;0.00;;;;;;;;4961877;28;112640;-73
2021/11/14 01:48:41;;;;;;;;;0.00;0.00;;;;;;;;4962448;28;111881;-74
2021/11/14 01:51:07;;;;;;;;;0.00;0.00;;;;;;;;4962494;28;111935;-74
2021/11/14 01:53:34;;;;;;;;;1.00;0.00;;;;;;;;4960389;28;113029;-74
2021/11/14 01:56:00;;;;;;;;;0.00;0.00;;;;;;;;4961374;28;112871;-73
2021/11/14 01:58:26;;;;;;;;;0.00;0.00;;;;;;;;4961448;28;111917;-73
2021/11/14 02:00:51;;;;;;;;;0.00;0.00;;;;;;;;4960023;28;112587;-71
2021/11/14 02:03:17;;;;;;;;;2.00;0.00;;;;;;;;4961375;28;111738;-72
2021/11/14 02:05:43;;;;;;;;;0.00;0.00;;;;;;;;4962165;28;112842;-73
2021/11/14 02:08:08;;;;;;;;;0.00;0.00;;;;;;;;4961008;28;111797;-73
2021/11/14 02:10:34;;;;;;;;;1.25;0.00;;;;;;;;4960503;28;111768;-74
2021/11/14 02:13:03;;;;;;;;;0.00;0.00;;;;;;;;4959935;28;112408;-74
2021/11/14 02:15:29;;;;;;;;;0.00;0.00;;;;;;;;4961521;28;111838;-73
2021/11/14 02:17:54;;;;;;;;;0.00;0.00;;;;;;;;4961229;28;111980;-73
2021/11/14 02:20:20;;;;;;;;;0.25;0.25;;;;;;;;4960390;28;112397;-73
2021/11/14 02:22:46;;;;;;;;;2.50;1.25;;;;;;;;4960776;28;112973;-74
2021/11/14 02:25:12;;;;;;;;;2.00;1.75;;;;;;;;4960893;28;112031;-74
2021/11/14 02:27:38;;;;;;;;;2.00;2.00;;;;;;;;4963357;28;113810;-73
2021/11/14 02:30:05;;;;;;;;;2.00;2.00;;;;;;;;4960800;28;111812;-73
2021/11/14 02:32:30;;;;;;;;;2.00;2.00;;;;;;;;4960212;28;112484;-74
2021/11/14 02:34:55;;;;;;;;;1.50;1.00;;;;;;;;4964599;28;111802;-75
2021/11/14 02:37:21;;;;;;;;;1.00;1.00;;;;;;;;4964350;28;111742;-75
2021/11/14 02:39:46;;;;;;;;;2.00;2.00;;;;;;;;4963394;28;113079;-74
2021/11/14 02:42:11;;;;;;;;;2.00;2.00;;;;;;;;4964119;28;111972;-74
2021/11/14 02:44:37;;;;;;;;;2.00;2.00;;;;;;;;4964100;28;111889;-73
2021/11/14 02:47:02;;;;;;;;;1.00;1.00;;;;;;;;4966208;28;113592;-74
2021/11/14 02:49:27;;;;;;;;;2.00;2.00;;;;;;;;4963936;28;112480;-73
2021/11/14 02:51:53;;;;;;;;;1.00;1.00;;;;;;;;4962928;28;112732;-73
2021/11/14 02:54:18;;;;;;;;;2.00;2.00;;;;;;;;4963378;28;111995;-74
2021/11/14 02:56:43;;;;;;;;;2.00;1.75;;;;;;;;4963762;28;111913;-73
2021/11/14 02:59:09;;;;;;;;;2.50;1.50;;;;;;;;4962442;28;112297;-73
2021/11/14 03:01:41;;;;;;;;;1.00;1.00;;;;;;;;4963717;28;112460;-73
2021/11/14 03:04:06;;;;;;;;;0.50;0.50;;;;;;;;4964255;28;112409;-73
2021/11/14 03:06:32;;;;;;;;;1.00;1.00;;;;;;;;4962855;28;112286;-72
2021/11/14 03:08:57;;;;;;;;;1.25;1.25;;;;;;;;4966897;28;112713;-72
2021/11/14 03:11:23;;;;;;;;;1.00;1.00;;;;;;;;4962004;28;112426;-73
2021/11/14 03:13:48;;;;;;;;;2.25;1.00;;;;;;;;4962995;28;111879;-72
2021/11/14 03:16:16;;;;;;;;;0.50;0.50;;;;;;;;4963132;28;112029;-73
2021/11/14 03:18:41;;;;;;;;;1.50;1.00;;;;;;;;4962624;28;112525;-72
2021/11/14 03:21:08;;;;;;;;;1.50;1.00;;;;;;;;4963704;28;111846;-72
2021/11/14 03:23:34;;;;;;;;;1.00;1.00;;;;;;;;4961485;28;115228;-72
2021/11/14 03:26:00;;;;;;;;;1.50;1.50;;;;;;;;4961656;28;112387;-72
2021/11/14 03:28:26;;;;;;;;;0.00;0.00;;;;;;;;4963930;28;111943;-73
2021/11/14 03:30:52;;;;;;;;;2.00;1.00;;;;;;;;4966303;28;112155;-73
2021/11/14 03:33:18;;;;;;;;;1.25;1.00;;;;;;;;4963040;28;111925;-73
2021/11/14 03:35:47;;;;;;;;;0.00;0.00;;;;;;;;4962604;28;112830;-72
2021/11/14 03:38:13;;;;;;;;;1.00;1.00;;;;;;;;4961806;28;112683;-72
2021/11/14 03:40:39;;;;;;;;;2.00;2.00;;;;;;;;4962931;28;112042;-73
2021/11/14 03:43:05;;;;;;;;;2.00;1.00;;;;;;;;4962654;28;111803;-72
2021/11/14 03:45:31;;;;;;;;;0.00;0.00;;;;;;;;4962379;28;113056;-73
2021/11/14 03:47:56;;;;;;;;;0.00;0.00;;;;;;;;4962754;28;111972;-73
2021/11/14 03:50:22;;;;;;;;;0.00;0.00;;;;;;;;4963171;28;112261;-74
2021/11/14 03:52:47;;;;;;;;;4.25;1.00;;;;;;;;4965841;28;112584;-73
2021/11/14 03:55:14;;;;;;;;;2.00;0.50;;;;;;;;4962926;28;111972;-74
2021/11/14 03:57:40;;;;;;;;;1.00;1.00;;;;;;;;4960096;28;115397;-73
2021/11/14 04:00:09;;;;;;;;;1.00;1.00;;;;;;;;4962663;28;112056;-73
2021/11/14 04:02:35;;;;;;;;;3.00;0.75;;;;;;;;4963064;28;112152;-73
2021/11/14 04:05:01;;;;;;;;;2.50;2.50;;;;;;;;4961412;28;113587;-74
2021/11/14 04:07:28;;;;;;;;;2.25;1.00;;;;;;;;4961313;28;112240;-73
2021/11/14 04:09:53;;;;;;;;;1.75;0.50;;;;;;;;4962184;28;112454;-73
2021/11/14 04:12:18;;;;;;;;;1.25;0.00;;;;;;;;4961139;28;112522;-73
2021/11/14 04:14:43;;;;;;;;;1.75;0.00;;;;;;;;4965959;28;111877;-73
2021/11/14 04:17:09;;;;;;;;;1.00;1.00;;;;;;;;4961272;28;112431;-73
2021/11/14 04:19:34;;;;;;;;;2.00;2.00;;;;;;;;4962236;28;112067;-72
2021/11/14 04:21:59;;;;;;;;;1.25;1.25;;;;;;;;4962732;28;112612;-74
2021/11/14 04:24:25;;;;;;;;;6.00;4.00;;;;;;;;4961276;28;112338;-73
2021/11/14 04:26:50;;;;;;;;;3.00;3.00;;;;;;;;4962700;28;112485;-74
2021/11/14 04:29:15;;;;;;;;;3.00;3.00;;;;;;;;4962622;28;111860;-74
2021/11/14 04:31:40;;;;;;;;;7.00;5.00;;;;;;;;4961110;28;112902;-72
2021/11/14 04:34:06;;;;;;;;;6.00;6.00;;;;;;;;4962330;28;111791;-72
2021/11/14 04:36:31;;;;;;;;;7.00;3.00;;;;;;;;4964755;28;112271;-72
2021/11/14 04:38:56;;;;;;;;;9.00;4.00;;;;;;;;4962270;28;111617;-72
2021/11/14 04:41:22;;;;;;;;;4.25;3.50;;;;;;;;4962353;28;112118;-74
2021/11/14 10:10:03;;;;;;;;;7.75;7.00;;;;;;;;5010105;27;1670389;-71
2021/11/14 10:12:35;;;;;;;;;4.25;4.25;;;;;;;;5030821;27;115458;-71
2021/11/14 10:15:04;;;;;;;;;5.25;5.25;;;;;;;;5058298;27;112435;-75
2021/11/14 10:17:29;;;;;;;;;5.75;4.25;;;;;;;;5059123;27;112394;-79
2021/11/14 10:20:04;;;;;;;;;7.75;7.00;;;;;;;;5057963;27;112461;-74
2021/11/14 10:22:30;;;;;;;;;7.00;6.00;;;;;;;;5040141;27;111988;-76
2021/11/14 10:24:55;;;;;;;;;6.00;6.00;;;;;;;;5059080;27;111708;-73
2021/11/14 10:27:24;;;;;;;;;3.00;2.50;;;;;;;;5057349;27;113048;-73
2021/11/14 10:29:49;;;;;;;;;4.00;3.00;;;;;;;;5061972;27;112183;-72
2021/11/14 10:35:57;;;;;;;;;4.00;4.00;;;;;;;;7276668;19;148987;-73
2021/11/14 10:38:28;;;;;;;;;6.00;5.00;;;;;;;;6968333;19;277842;-72
2021/11/14 10:40:56;;;;;;;;;6.00;6.00;;;;;;;;7326637;19;149170;-69
2021/11/14 10:43:22;;;;;;;;;8.00;8.00;;;;;;;;7327297;19;149102;-73
2021/11/14 10:45:48;;;;;;;;;12.00;9.75;;;;;;;;7325921;19;151597;-73
2021/11/14 10:48:15;;;;;;;;;15.50;11.50;;;;;;;;7327540;19;149023;-73
2021/11/14 10:50:43;;;;;;;;;8.25;8.25;;;;;;;;7326121;19;152621;-74
2021/11/14 10:53:10;;;;;;;;;13.25;11.50;;;;;;;;7326126;19;149826;-71
2021/11/14 10:55:39;;;;;;;;;10.25;9.00;;;;;;;;7332465;19;149062;-73
2021/11/14 10:58:05;;;;;;;;;13.00;10.25;;;;;;;;7326754;19;149458;-73
2021/11/14 11:00:30;;;;;;;;;11.50;9.00;;;;;;;;7328300;19;149177;-73
2021/11/14 11:02:56;;;;;;;;;10.00;9.00;;;;;;;;7326813;19;149371;-73
2021/11/14 11:05:22;;;;;;;;;11.00;9.00;;;;;;;;7321288;19;149800;-73
2021/11/14 11:07:55;;;;;;;;;13.75;10.50;;;;;;;;7325239;19;148935;-74
2021/11/14 11:10:24;;;;;;;;;9.00;9.00;;;;;;;;7327455;19;149217;-73
2021/11/14 11:12:50;;;;;;;;;11.50;9.00;;;;;;;;7322350;19;149834;-72
2021/11/14 11:15:15;;;;;;;;;10.00;8.75;;;;;;;;7324688;19;149175;-70
2021/11/14 11:17:42;;;;;;;;;12.75;8.75;;;;;;;;7333255;19;149217;-76
2021/11/14 11:20:08;;;;;;;;;12.50;8.75;;;;;;;;7326798;19;149129;-71
2021/11/14 11:22:44;;;;;;;;;11.25;9.50;;;;;;;;7326181;19;149398;-73
2021/11/14 11:25:09;;;;;;;;;9.25;8.75;;;;;;;;7325462;19;150009;-71
2021/11/14 11:27:34;;;;;;;;;9.00;9.00;;;;;;;;7326853;19;149170;-71
2021/11/14 11:30:00;;;;;;;;;13.00;11.00;;;;;;;;7326181;19;149376;-73
2021/11/14 11:32:25;;;;;;;;;10.75;7.00;;;;;;;;7325128;19;149760;-72
2021/11/14 11:34:50;;;;;;;;;11.00;9.50;;;;;;;;7324477;19;149910;-73
2021/11/14 11:37:16;;;;;;;;;9.00;6.75;;;;;;;;7326452;19;149354;-75
2021/11/14 11:39:42;;;;;;;;;8.25;7.00;;;;;;;;7332791;19;149436;-76
2021/11/14 11:42:08;;;;;;;;;6.50;6.50;;;;;;;;7325589;19;151677;-73
2021/11/14 11:44:34;;;;;;;;;11.75;10.25;;;;;;;;7324727;19;151059;-74
2021/11/14 11:47:05;;;;;;;;;9.00;8.25;;;;;;;;7298217;19;149092;-74
2021/11/14 11:49:31;;;;;;;;;8.25;8.00;;;;;;;;7297306;19;149497;-76
2021/11/14 11:51:57;;;;;;;;;8.50;8.00;;;;;;;;7296795;19;150584;-75
2021/11/14 11:54:27;;;;;;;;;10.50;8.00;;;;;;;;7297104;19;150832;-74
2021/11/14 11:56:55;;;;;;;;;13.00;9.50;;;;;;;;7297631;19;149258;-74
2021/11/14 11:59:31;;;;;;;;;9.00;8.00;;;;;;;;7296749;19;149689;-74
2021/11/14 12:01:59;;;;;;;;;7.75;6.75;;;;;;;;7305377;19;149339;-73
2021/11/14 12:04:27;;;;;;;;;8.50;6.50;;;;;;;;7294932;19;152940;-73
2021/11/14 12:07:00;;;;;;;;;9.00;8.75;;;;;;;;7295587;19;149182;-74
2021/11/14 12:09:34;;;;;;;;;7.50;6.00;;;;;;;;7291661;19;150103;-72
2021/11/14 12:12:00;;;;;;;;;7.25;7.00;;;;;;;;7291914;19;150535;-75
2021/11/14 12:14:27;;;;;;;;;6.75;6.25;;;;;;;;7295811;19;149140;-73
2021/11/14 12:16:59;;;;;;;;;9.25;8.25;;;;;;;;7295339;19;150056;-72
2021/11/14 12:19:25;;;;;;;;;8.00;7.00;;;;;;;;7291679;19;154142;-72
2021/11/14 12:21:54;;;;;;;;;10.00;8.00;;;;;;;;7296636;19;148954;-73
2021/11/14 12:24:19;;;;;;;;;9.00;9.00;;;;;;;;7302066;19;149316;-70
2021/11/14 12:26:45;;;;;;;;;9.00;7.00;;;;;;;;7296278;19;149036;-71
2021/11/14 12:29:10;;;;;;;;;8.00;6.75;;;;;;;;7296021;19;149298;-72
2021/11/14 12:31:46;;;;;;;;;7.75;7.50;;;;;;;;7294508;19;151425;-72
2021/11/14 12:34:19;;;;;;;;;7.50;7.25;;;;;;;;7295079;19;149105;-71
2021/11/14 12:36:46;;;;;;;;;9.00;7.50;;;;;;;;7289976;19;150421;-72
2021/11/14 12:39:14;;;;;;;;;8.75;7.00;;;;;;;;7290995;19;150016;-72
2021/11/14 12:41:47;;;;;;;;;10.00;7.00;;;;;;;;7293713;19;149316;-73
2021/11/14 12:44:13;;;;;;;;;5.00;5.00;;;;;;;;7292775;19;150200;-73
2021/11/14 12:46:38;;;;;;;;;9.50;8.25;;;;;;;;7300878;19;149677;-73
2021/11/14 12:49:11;;;;;;;;;6.75;6.00;;;;;;;;7292459;19;151827;-72
2021/11/14 12:51:37;;;;;;;;;6.25;6.00;;;;;;;;7292983;19;149917;-73
2021/11/14 12:54:13;;;;;;;;;6.00;6.00;;;;;;;;7292580;19;149245;-72
2021/11/14 12:56:43;;;;;;;;;5.50;5.50;;;;;;;;7293778;19;150827;-72
2021/11/14 12:59:15;;;;;;;;;9.75;7.00;;;;;;;;7291618;19;150396;-72
2021/11/14 13:01:40;;;;;;;;;7.75;7.00;;;;;;;;7294552;19;149399;-71
2021/11/14 13:04:05;;;;;;;;;7.00;7.00;;;;;;;;7292273;19;151684;-71
2021/11/14 13:06:33;;;;;;;;;6.25;2.00;;;;;;;;7300286;19;149248;-71
2021/11/14 13:09:09;;;;;;;;;6.50;6.50;;;;;;;;7293668;19;149410;-73
2021/11/14 13:11:35;;;;;;;;;8.75;7.75;;;;;;;;7291289;19;150843;-70
2021/11/14 13:14:08;;;;;;;;;11.25;11.00;;;;;;;;7293798;19;149235;-69
2021/11/14 13:16:34;;;;;;;;;10.25;7.50;;;;;;;;7293783;19;149200;-70
2021/11/14 13:19:03;;;;;;;;;9.50;8.00;;;;;;;;7292519;19;149679;-71
2021/11/14 13:21:28;;;;;;;;;7.00;6.25;;;;;;;;7294883;19;150063;-73
2021/11/14 13:24:02;;;;;;;;;6.25;6.25;;;;;;;;7294350;19;150731;-71
2021/11/14 13:26:33;;;;;;;;;7.00;6.50;;;;;;;;7292104;19;152569;-72
2021/11/14 13:28:59;;;;;;;;;5.50;5.50;;;;;;;;7302343;19;149811;-73
2021/11/14 13:31:25;;;;;;;;;8.00;8.00;;;;;;;;7290751;19;152932;-72
2021/11/14 13:33:57;;;;;;;;;9.50;7.50;;;;;;;;7291059;19;149394;-72
2021/11/14 13:36:23;;;;;;;;;9.00;8.00;;;;;;;;7293557;19;150901;-71
2021/11/14 13:38:49;;;;;;;;;7.50;7.50;;;;;;;;7292355;19;150775;-72
2021/11/14 13:41:18;;;;;;;;;12.25;9.50;;;;;;;;7293915;19;150106;-72
2021/11/14 13:43:53;;;;;;;;;12.00;9.00;;;;;;;;7291539;19;151455;-71
2021/11/14 13:46:19;;;;;;;;;9.50;9.50;;;;;;;;7292120;19;150832;-71
2021/11/14 13:48:48;;;;;;;;;11.00;10.75;;;;;;;;7293413;19;149538;-70
2021/11/14 13:51:13;;;;;;;;;13.50;12.25;;;;;;;;7297095;19;151250;-73
2021/11/14 13:53:38;;;;;;;;;14.33;13.00;;;;;;;;7293113;19;149153;-70
2021/11/14 13:56:05;;;;;;;;;12.50;10.50;;;;;;;;7290418;19;149675;-71
2021/11/14 13:58:38;;;;;;;;;8.25;7.75;;;;;;;;7291303;19;151699;-71
2021/11/14 14:01:04;;;;;;;;;10.00;8.75;;;;;;;;7293073;19;149524;-70
2021/11/14 14:03:29;;;;;;;;;8.25;8.00;;;;;;;;7292546;19;150879;-71
2021/11/14 14:05:55;;;;;;;;;8.00;8.00;;;;;;;;7291306;19;149715;-73
2021/11/14 14:08:24;;;;;;;;;11.75;9.00;;;;;;;;7290836;19;149510;-71
2021/11/14 14:10:50;;;;;;;;;7.25;7.25;;;;;;;;7293091;19;150668;-71
2021/11/14 14:13:17;;;;;;;;;15.25;12.25;;;;;;;;7298133;19;151057;-71
2021/11/14 14:15:43;;;;;;;;;8.75;8.00;;;;;;;;7290456;19;149374;-69
2021/11/14 14:18:15;;;;;;;;;11.00;9.00;;;;;;;;7286813;19;155570;-67
2021/11/14 14:20:40;;;;;;;;;8.50;7.75;;;;;;;;7289988;19;149389;-72
2021/11/14 14:23:06;;;;;;;;;7.50;7.50;;;;;;;;7289447;19;152251;-72
2021/11/14 14:25:33;;;;;;;;;11.50;10.00;;;;;;;;7290222;19;150089;-71
2021/11/14 14:28:00;;;;;;;;;13.75;12.00;;;;;;;;7290074;19;149398;-72
2021/11/14 14:30:27;;;;;;;;;12.25;11.75;;;;;;;;7291934;19;149240;-74
2021/11/14 14:32:57;;;;;;;;;11.00;11.00;;;;;;;;7290149;19;149933;-71
2021/11/14 14:35:39;;;;;;;;;11.25;9.25;;;;;;;;7296111;19;149684;-71
2021/11/14 14:38:08;;;;;;;;;13.00;11.00;;;;;;;;7290133;19;151132;-71
2021/11/14 14:40:50;;;;;;;;;12.25;11.00;;;;;;;;7290746;19;149281;-69
2021/11/14 14:43:16;;;;;;;;;8.50;8.50;;;;;;;;7291053;19;149273;-72
2021/11/14 14:45:49;;;;;;;;;10.00;8.00;;;;;;;;7288728;19;151446;-70
2021/11/14 14:48:15;;;;;;;;;12.75;9.50;;;;;;;;7288633;19;149120;-70
2021/11/14 14:50:51;;;;;;;;;11.00;11.00;;;;;;;;7291807;19;149004;-71
2021/11/14 14:53:24;;;;;;;;;10.00;8.50;;;;;;;;7282315;19;149771;-70
2021/11/14 14:55:49;;;;;;;;;10.00;10.00;;;;;;;;7295854;19;149247;-72
2021/11/14 14:58:14;;;;;;;;;8.50;8.50;;;;;;;;7289048;19;149781;-70
2021/11/14 15:00:41;;;;;;;;;12.50;10.50;;;;;;;;7290161;19;149141;-71
2021/11/14 15:03:06;;;;;;;;;12.75;10.50;;;;;;;;7288150;19;152450;-70
2021/11/14 15:05:39;;;;;;;;;8.75;5.00;;;;;;;;7289671;19;152790;-72
2021/11/14 15:08:05;;;;;;;;;11.00;9.50;;;;;;;;7290778;19;149342;-70
2021/11/14 15:10:30;;;;;;;;;9.00;9.00;;;;;;;;7290124;19;149492;-71
2021/11/14 15:12:58;;;;;;;;;9.00;7.50;;;;;;;;7289038;19;150034;-73
2021/11/14 15:15:24;;;;;;;;;5.00;5.00;;;;;;;;7288946;19;148844;-69
2021/11/14 15:17:57;;;;;;;;;10.50;7.50;;;;;;;;7295768;19;149162;-71
2021/11/14 15:20:24;;;;;;;;;4.75;4.75;;;;;;;;7290319;19;149572;-70
2021/11/14 15:22:49;;;;;;;;;8.75;7.50;;;;;;;;7297343;19;149629;-71
2021/11/14 15:25:17;;;;;;;;;8.00;7.50;;;;;;;;7286791;19;150944;-71
2021/11/14 15:27:45;;;;;;;;;6.00;6.00;;;;;;;;7292415;19;149370;-73
2021/11/14 15:30:11;;;;;;;;;8.50;6.50;;;;;;;;7297711;19;149751;-71
2021/11/14 15:32:37;;;;;;;;;8.75;8.00;;;;;;;;7293945;19;149329;-75
2021/11/14 15:35:05;;;;;;;;;5.50;5.50;;;;;;;;7291824;19;149563;-72
2021/11/14 15:37:30;;;;;;;;;8.00;6.00;;;;;;;;7296564;19;149815;-73
2021/11/14 15:39:55;;;;;;;;;8.50;7.00;;;;;;;;7302269;19;149839;-74
2021/11/14 15:42:21;;;;;;;;;15.50;12.25;;;;;;;;7296691;19;149794;-73
2021/11/14 15:44:47;;;;;;;;;8.50;8.00;;;;;;;;7293684;19;150498;-76
2021/11/14 15:47:12;;;;;;;;;12.25;9.75;;;;;;;;7296359;19;149525;-74
2021/11/14 15:49:37;;;;;;;;;13.25;11.50;;;;;;;;7296888;19;150006;-74
2021/11/14 15:52:03;;;;;;;;;15.00;12.75;;;;;;;;7294043;19;150391;-70
2021/11/14 15:54:28;;;;;;;;;12.25;10.50;;;;;;;;7295820;19;149316;-72
2021/11/14 15:56:54;;;;;;;;;12.25;9.00;;;;;;;;7295884;19;150189;-72
2021/11/14 15:59:19;;;;;;;;;10.00;10.00;;;;;;;;7294657;19;149712;-73
2021/11/14 16:01:44;;;;;;;;;10.25;7.00;;;;;;;;7303639;19;149401;-71
2021/11/14 16:04:09;;;;;;;;;9.25;8.75;;;;;;;;7293974;19;149639;-72
2021/11/14 16:06:35;;;;;;;;;8.50;8.50;;;;;;;;7294910;19;149672;-71
2021/11/14 16:09:00;;;;;;;;;6.00;4.50;;;;;;;;7295287;19;150106;-71
2021/11/14 16:11:25;;;;;;;;;4.75;4.75;;;;;;;;7294259;19;149319;-71
2021/11/14 16:13:51;;;;;;;;;5.00;5.00;;;;;;;;7293275;19;149562;-73
2021/11/14 16:16:16;;;;;;;;;11.25;6.00;;;;;;;;7292098;19;149553;-72
2021/11/14 16:18:42;;;;;;;;;6.00;5.00;;;;;;;;7292915;19;150430;-73
2021/11/14 16:21:07;;;;;;;;;8.25;8.25;;;;;;;;7291837;19;150746;-73
2021/11/14 16:23:36;;;;;;;;;10.00;9.00;;;;;;;;7191879;19;151274;-73
2021/11/14 16:26:02;;;;;;;;;11.00;9.00;;;;;;;;7293128;19;149288;-72
2021/11/14 16:28:27;;;;;;;;;10.75;9.75;;;;;;;;7293421;19;149925;-73
2021/11/14 16:30:53;;;;;;;;;12.25;10.00;;;;;;;;7290394;19;153944;-72
2021/11/14 16:33:18;;;;;;;;;12.00;12.00;;;;;;;;7292492;19;148977;-73
2021/11/14 16:35:43;;;;;;;;;17.25;13.00;;;;;;;;7291789;19;148967;-73
2021/11/14 16:38:13;;;;;;;;;11.00;9.50;;;;;;;;7292114;19;150321;-72
2021/11/14 16:40:38;;;;;;;;;12.50;9.25;;;;;;;;7293773;19;149055;-71
2021/11/14 16:43:04;;;;;;;;;8.50;8.50;;;;;;;;7293698;19;149467;-71
2021/11/14 16:45:29;;;;;;;;;16.00;13.00;;;;;;;;7299928;19;150498;-71
2021/11/14 16:47:56;;;;;;;;;17.00;15.00;;;;;;;;7294192;19;149295;-72
2021/11/14 16:50:21;;;;;;;;;15.00;15.00;;;;;;;;7292607;19;149482;-70
2021/11/14 16:52:47;;;;;;;;;15.75;15.00;;;;;;;;7293621;19;150087;-71
2021/11/14 16:55:13;;;;;;;;;18.75;14.50;;;;;;;;7292308;19;150673;-71
2021/11/14 16:57:42;;;;;;;;;16.00;16.00;;;;;;;;7291314;19;149968;-73
2021/11/14 17:00:09;;;;;;;;;16.00;15.25;;;;;;;;7290130;19;149131;-72
2021/11/14 17:02:34;;;;;;;;;14.00;12.50;;;;;;;;7291783;19;150062;-72
2021/11/14 17:04:59;;;;;;;;;17.75;15.50;;;;;;;;7297981;19;149683;-71
2021/11/14 17:07:25;;;;;;;;;27.75;21.25;;;;;;;;7292730;19;149333;-73
2021/11/14 17:09:50;;;;;;;;;17.25;15.00;;;;;;;;7291099;19;150545;-73
2021/11/14 17:12:16;;;;;;;;;18.50;18.50;;;;;;;;7293667;19;149410;-73
2021/11/14 17:14:41;;;;;;;;;28.50;21.75;;;;;;;;7292391;19;149343;-72
2021/11/14 17:17:07;;;;;;;;;29.50;23.50;;;;;;;;7289016;19;153256;-72
2021/11/14 17:19:32;;;;;;;;;28.00;25.00;;;;;;;;7292799;19;149092;-71
2021/11/14 17:21:58;;;;;;;;;25.25;22.75;;;;;;;;7292649;19;149898;-72
2021/11/14 17:24:23;;;;;;;;;29.25;23.50;;;;;;;;7288872;19;153475;-76
2021/11/14 17:26:48;;;;;;;;;30.50;26.50;;;;;;;;7298304;19;149339;-76
2021/11/14 17:29:14;;;;;;;;;28.00;23.75;;;;;;;;7291004;19;149176;-73
2021/11/14 17:31:41;;;;;;;;;31.50;22.50;;;;;;;;7293104;19;149440;-75
2021/11/14 17:34:06;;;;;;;;;26.00;23.50;;;;;;;;7292029;19;149467;-78
2021/11/14 17:36:32;;;;;;;;;31.50;23.50;;;;;;;;7288724;19;150004;-75
2021/11/14 17:38:57;;;;;;;;;27.00;24.25;;;;;;;;7292129;19;149178;-75
2021/11/14 17:41:24;;;;;;;;;26.25;21.75;;;;;;;;7291874;19;149243;-74
2021/11/14 17:43:49;;;;;;;;;23.25;22.75;;;;;;;;7287861;19;150704;-74
2021/11/14 17:46:15;;;;;;;;;18.00;15.50;;;;;;;;7290449;19;149901;-73
2021/11/14 17:48:40;;;;;;;;;26.50;25.50;;;;;;;;7298921;19;149939;-74
2021/11/14 17:51:08;;;;;;;;;24.00;23.25;;;;;;;;7292342;19;149212;-78
2021/11/14 17:53:33;;;;;;;;;17.75;17.75;;;;;;;;7292450;19;149297;-73
2021/11/14 17:56:02;;;;;;;;;28.50;23.00;;;;;;;;7289136;19;149883;-74
2021/11/14 17:58:27;;;;;;;;;33.75;27.75;;;;;;;;7291697;19;149724;-76
2021/11/14 18:00:56;;;;;;;;;29.25;26.50;;;;;;;;7292282;19;149479;-75
2021/11/14 18:03:23;;;;;;;;;34.75;31.00;;;;;;;;7290900;19;149944;-75
2021/11/14 18:05:48;;;;;;;;;32.25;31.50;;;;;;;;7291848;19;149030;-72
2021/11/14 18:08:14;;;;;;;;;30.25;26.75;;;;;;;;7291377;19;149475;-74
2021/11/14 18:10:39;;;;;;;;;32.75;29.25;;;;;;;;7297699;19;149785;-73
2021/11/14 18:13:06;;;;;;;;;28.50;26.00;;;;;;;;7290405;19;152359;-77
2021/11/14 18:15:33;;;;;;;;;29.00;26.00;;;;;;;;7289452;19;151318;-76
2021/11/14 18:17:59;;;;;;;;;26.75;23.00;;;;;;;;7291384;19;148907;-76
2021/11/14 18:20:24;;;;;;;;;31.00;26.50;;;;;;;;7291609;19;150904;-71
2021/11/14 18:22:49;;;;;;;;;34.25;26.75;;;;;;;;7289908;19;150749;-72
2021/11/14 18:25:16;;;;;;;;;27.50;25.25;;;;;;;;7286545;19;149921;-70
2021/11/14 18:27:42;;;;;;;;;25.75;24.00;;;;;;;;7287828;19;149420;-71
2021/11/14 18:30:12;;;;;;;;;24.00;23.25;;;;;;;;7290009;19;151284;-74
2021/11/14 18:32:38;;;;;;;;;27.75;27.75;;;;;;;;7297097;19;149329;-69
2021/11/14 18:35:05;;;;;;;;;35.00;27.25;;;;;;;;7286570;19;149691;-73
2021/11/14 18:37:30;;;;;;;;;26.00;23.50;;;;;;;;7289602;19;149426;-73
2021/11/14 18:39:56;;;;;;;;;27.75;26.00;;;;;;;;7291315;19;149623;-73
2021/11/14 18:42:21;;;;;;;;;32.00;26.00;;;;;;;;7289988;19;150584;-74
2021/11/14 18:44:46;;;;;;;;;33.25;26.00;;;;;;;;7291080;19;150509;-74
2021/11/14 18:47:11;;;;;;;;;35.00;31.25;;;;;;;;7290128;19;149690;-73
2021/11/14 18:49:37;;;;;;;;;40.25;37.50;;;;;;;;7290250;19;149665;-72
2021/11/14 18:52:03;;;;;;;;;35.50;28.00;;;;;;;;7290767;19;148861;-72
2021/11/14 18:54:30;;;;;;;;;41.50;37.00;;;;;;;;7296401;19;149235;-69
2021/11/14 18:56:56;;;;;;;;;38.75;31.75;;;;;;;;7295906;19;149209;-69
2021/11/14 18:59:22;;;;;;;;;40.00;35.50;;;;;;;;7296931;19;150602;-70
2021/11/14 19:01:47;;;;;;;;;36.50;32.75;;;;;;;;7296122;19;149941;-69
2021/11/14 19:04:13;;;;;;;;;42.25;36.50;;;;;;;;7297137;19;148927;-71
2021/11/14 19:06:38;;;;;;;;;36.50;33.75;;;;;;;;7297129;19;149292;-69
2021/11/14 19:09:05;;;;;;;;;37.25;35.50;;;;;;;;7295790;19;149156;-68
2021/11/14 19:11:30;;;;;;;;;33.50;32.00;;;;;;;;7297084;19;149060;-68
2021/11/14 19:13:56;;;;;;;;;32.50;29.50;;;;;;;;7303287;19;149271;-74
2021/11/14 19:16:22;;;;;;;;;38.25;29.75;;;;;;;;7295942;19;149550;-69
2021/11/14 19:18:47;;;;;;;;;37.00;36.50;;;;;;;;7297168;19;150134;-69
2021/11/14 19:21:13;;;;;;;;;34.50;33.50;;;;;;;;7296769;19;149915;-68
2021/11/14 19:23:39;;;;;;;;;32.25;29.50;;;;;;;;7297501;19;150216;-70
2021/11/14 19:26:06;;;;;;;;;36.75;29.25;;;;;;;;7295387;19;149236;-74
2021/11/14 19:28:31;;;;;;;;;34.75;32.75;;;;;;;;7296117;19;149909;-75
2021/11/14 19:30:57;;;;;;;;;39.50;36.25;;;;;;;;7293514;19;149318;-72
2021/11/14 19:33:22;;;;;;;;;38.75;35.25;;;;;;;;7289930;19;150064;-73
2021/11/14 19:35:47;;;;;;;;;43.33;39.00;;;;;;;;7296054;19;150164;-72
2021/11/14 19:38:13;;;;;;;;;44.00;36.50;;;;;;;;7293161;19;149911;-73
2021/11/14 19:40:39;;;;;;;;;49.00;42.67;;;;;;;;7292780;19;150682;-72
2021/11/14 19:43:07;;;;;;;;;52.67;44.33;;;;;;;;7292700;19;149163;-73
2021/11/14 19:45:32;;;;;;;;;47.00;39.00;;;;;;;;7294583;19;150799;-72
2021/11/14 19:47:58;;;;;;;;;39.75;35.75;;;;;;;;7292736;19;152863;-77